Date,TemperatureHighF,TemperatureAvgF,TemperatureLowF,DewpointHighF,DewpointAvgF,DewpointLowF,HumidityHigh,HumidityAvg,HumidityLow,PressureMaxIn,PressureMinIn,WindSpeedMaxMPH,WindSpeedAvgMPH,GustSpeedMaxMPH,PrecipitationSumIn
2012-12-1,68.4,62.3,57.6,62.6,58.2,53.9,90,86,79,28.93,25.82,6,2,6,0.00
2012-12-2,85.5,70.5,55.1,66.2,60.1,52.5,91,72,48,27.41,25.64,10,1,10,0.00
2012-12-3,68.8,63.7,59.0,64.4,60.2,56.2,90,89,84,29.23,20.33,6,1,6,0.00
2012-12-4,84.2,66.0,55.1,68.3,56.9,52.5,93,75,45,28.95,25.29,5,1,5,0.00
2012-12-5,78.3,64.1,53.6,65.2,56.6,49.7,89,78,53,28.29,25.57,8,2,8,0.00
2012-12-6,77.2,64.0,60.1,68.3,59.9,56.6,90,87,71,28.20,26.78,15,5,15,0.00
2012-12-7,63.7,60.7,57.1,59.7,57.6,54.2,92,89,86,30.35,20.19,14,3,14,0.00
2012-12-8,75.1,61.1,56.7,66.0,57.7,53.6,92,88,69,30.46,21.26,5,1,5,0.00
2012-12-9,76.1,63.4,56.2,71.7,60.5,53.8,93,90,84,29.31,24.03,6,2,6,0.00
2012-12-10,82.4,67.7,60.1,72.2,63.2,58.2,94,86,63,28.75,23.61,9,3,9,0.00
2012-12-13,53.1,49.9,47.5,51.1,47.3,45.1,93,91,88,29.91,28.78,14,6,14,0.00
2012-12-14,56.5,53.5,47.5,50.6,49.1,45.4,92,85,79,28.78,28.41,7,2,7,0.00
2012-12-15,73.3,61.3,53.5,64.7,56.3,48.8,91,84,72,28.42,13.10,10,1,10,0.00
2012-12-16,79.4,64.6,54.7,67.9,59.5,52.4,93,84,66,29.71,24.70,8,1,8,0.00
2012-12-17,77.8,69.1,61.4,67.0,62.7,58.5,90,80,66,26.97,21.07,9,2,9,0.00
2012-12-18,65.5,65.3,65.2,62.8,62.5,62.2,91,91,90,15.31,15.31,6,4,6,0.00
2012-12-19,53.3,48.0,42.8,46.3,42.6,38.6,85,82,76,25.42,20.01,3,0,3,0.00
2012-12-20,82.1,65.1,49.9,65.5,57.4,44.7,90,77,57,27.99,20.99,16,4,16,0.00
2012-12-21,61.0,50.9,41.8,50.5,31.0,23.8,70,48,29,29.58,23.83,20,8,20,0.00
2012-12-22,64.6,45.6,34.0,33.1,27.5,22.4,71,51,29,30.15,28.10,11,3,11,0.00
2012-12-23,61.0,45.4,34.9,40.7,34.1,27.9,80,66,35,30.27,28.92,7,0,7,0.00
2012-12-24,71.3,56.6,45.0,55.5,47.9,38.3,87,73,57,29.28,28.17,13,2,13,0.00
2012-12-25,76.0,63.6,55.1,64.9,56.8,49.7,87,79,63,29.38,26.97,8,2,8,0.00
2012-12-26,70.6,61.2,41.8,62.4,52.4,33.9,89,73,53,28.09,26.32,24,10,24,0.00
2012-12-27,63.9,44.7,36.5,43.6,36.0,31.7,83,73,45,28.50,27.43,8,2,8,0.00
2012-12-28,69.5,51.7,37.6,53.6,43.7,33.2,86,75,51,29.58,27.92,5,1,5,0.00
2012-12-29,70.6,60.5,44.5,66.4,53.3,34.9,91,77,57,29.59,28.92,16,8,16,0.00
2012-12-30,63.5,45.7,35.6,40.5,33.4,28.8,79,64,36,30.66,28.89,17,4,17,0.00
2012-12-31,74.7,52.6,39.1,56.2,43.2,32.9,81,71,50,29.76,28.63,9,1,9,0.00